Strona główna
METAR-TAF:

METAR-TAF

Lotnisko :

Tarawa, Kiribati

Port lotniczy Bonriki

Szerokość geograficzna: 01-21N, Długość geograficzna: 172-55E, wysokość: 2 m

Aktualna obserwacja pogody

Raport powstał 23 minut temu, godzina 05:00 UTC
Wiatr 23 kt od wschód
Temperatura 29°C
Wilgotność 79%
Ciśnienie 1004 hPa
Widzialność 10 km lub więcej
Mało chmury na wysokości 2000 ft
Rozproszone chmury na wysokości 30000 ft

METAR: NGTA 190500Z 09023KT 9999 FEW020 SCT300 29/25 Q1004

czas: 19:23 (05:23 UTC)

Prognoza

Raport powstał 6 godziny i 22 minut temu, godzina 23:01 UTC
Prognoza ważna od 19 godzina 00 UTC do 19 godzina 24 UTC
Wiatr 20 kt od wschód
Widzialność 10 km lub więcej
Rozproszone chmury na wysokości 1800 ft
Rozproszone chmury na wysokości 10000 ft

TAF: NGTA 182301Z 1900/1924 10020KT 9999 SCT018 SCT100

Obserwacja i prognoza pogody dla ponad 4000 lotnisk (raport METAR i TAF).

Dostępne stacje oznaczono żółtymi i czerwonymi punktami na mapie.

Najedź kursorem aby zobaczyć nazwę stacji.

Kliknij aby zobaczyć obserwacje i prognozy pogody.

Aby zmienić mapę: kliknij na zielony przycisk z czarnym krzyżykiem, aby powiększyć; na zielony przycisk z myślnikiem, aby pomniejszyć; na zielone strzałki, aby przejść do map sąsiednich.


METAR-TAF: